Time;durP1;ratioP1;P1;durP2;ratioP2;P2;SDS_P1;SDS_P2;PMS_P1;PMS_P2;Temp;Humidity;BMP_temperature;BMP_pressure;BME280_temperature;BME280_humidity;BME280_pressure;Samples;Min_cycle;Max_cycle;Signal;HPM_P1;HPM_P2
2024/02/18 00:02:00;;;;;;;5.53;3.88;;;;;;;;;;5024631;28;20052;-77
2024/02/18 00:04:26;;;;;;;3.70;2.75;;;;;;;;;;5011061;28;20030;-78
2024/02/18 00:06:52;;;;;;;4.80;3.83;;;;;;;;;;5015451;28;20053;-77
2024/02/18 00:09:18;;;;;;;5.10;4.05;;;;;;;;;;5015284;28;20080;-77
2024/02/18 00:11:44;;;;;;;6.13;4.30;;;;;;;;;;5014971;28;20346;-77
2024/02/18 00:14:11;;;;;;;5.65;4.35;;;;;;;;;;5016296;28;20030;-77
2024/02/18 00:16:37;;;;;;;5.82;4.22;;;;;;;;;;5015730;28;20025;-77
2024/02/18 00:19:03;;;;;;;5.85;4.63;;;;;;;;;;5032394;28;20026;-77
2024/02/18 00:21:29;;;;;;;7.03;4.32;;;;;;;;;;5031700;28;20022;-78
2024/02/18 00:23:58;;;;;;;5.78;4.20;;;;;;;;;;5017396;28;20450;-77
2024/02/18 00:26:24;;;;;;;4.88;3.60;;;;;;;;;;5021227;28;20104;-77
2024/02/18 00:28:51;;;;;;;4.68;3.35;;;;;;;;;;5024663;28;20017;-78
2024/02/18 00:31:17;;;;;;;4.43;3.70;;;;;;;;;;5028564;28;20026;-77
2024/02/18 00:33:43;;;;;;;4.18;3.17;;;;;;;;;;5018913;28;20041;-77
2024/02/18 00:36:09;;;;;;;4.60;3.63;;;;;;;;;;5017200;28;20030;-77
2024/02/18 00:38:35;;;;;;;4.68;3.40;;;;;;;;;;5015473;28;20022;-77
2024/02/18 00:41:03;;;;;;;3.97;3.10;;;;;;;;;;5030260;28;20026;-79
2024/02/18 00:43:29;;;;;;;3.30;2.75;;;;;;;;;;5016231;28;20041;-75
2024/02/18 00:45:55;;;;;;;2.65;2.40;;;;;;;;;;5014434;28;20033;-77
2024/02/18 00:48:21;;;;;;;3.22;2.70;;;;;;;;;;5014866;28;20125;-77
2024/02/18 00:50:47;;;;;;;3.13;2.40;;;;;;;;;;5014909;28;20026;-78
2024/02/18 00:53:13;;;;;;;3.58;2.42;;;;;;;;;;5019477;28;20033;-77
2024/02/18 00:55:43;;;;;;;3.55;2.78;;;;;;;;;;5017655;28;20014;-78
2024/02/18 00:58:13;;;;;;;3.80;2.78;;;;;;;;;;5029223;28;20037;-78
2024/02/18 01:00:39;;;;;;;2.67;2.38;;;;;;;;;;5023268;28;20029;-78
2024/02/18 01:03:06;;;;;;;2.88;2.40;;;;;;;;;;5025151;28;20129;-78
2024/02/18 01:05:32;;;;;;;2.63;2.33;;;;;;;;;;5020015;28;20022;-77
2024/02/18 01:07:58;;;;;;;2.65;2.25;;;;;;;;;;5036474;28;20056;-77
2024/02/18 01:10:24;;;;;;;3.03;2.30;;;;;;;;;;5036209;28;20018;-78
2024/02/18 01:12:50;;;;;;;2.85;2.55;;;;;;;;;;5019270;28;20029;-77
2024/02/18 01:15:17;;;;;;;2.90;2.25;;;;;;;;;;5033617;28;20008;-76
2024/02/18 01:17:43;;;;;;;2.67;2.30;;;;;;;;;;5033388;28;20332;-76
2024/02/18 01:20:09;;;;;;;2.65;2.45;;;;;;;;;;5036171;28;20028;-76
2024/02/18 01:22:36;;;;;;;2.50;2.13;;;;;;;;;;5052339;28;20041;-76
2024/02/18 01:25:05;;;;;;;2.65;2.30;;;;;;;;;;5036437;28;20010;-77
2024/02/18 01:27:31;;;;;;;4.03;2.97;;;;;;;;;;5043625;28;20029;-77
2024/02/18 01:29:57;;;;;;;3.72;2.92;;;;;;;;;;5039864;28;20051;-77
2024/02/18 01:32:23;;;;;;;3.97;3.08;;;;;;;;;;5038620;28;20239;-76
2024/02/18 01:34:51;;;;;;;3.83;2.95;;;;;;;;;;5023742;28;20042;-78
2024/02/18 01:37:17;;;;;;;3.90;3.03;;;;;;;;;;5016815;28;20077;-77
2024/02/18 01:39:43;;;;;;;3.53;3.20;;;;;;;;;;5018506;28;20026;-77
2024/02/18 01:42:09;;;;;;;4.57;3.22;;;;;;;;;;5015645;28;20073;-77
2024/02/18 01:44:36;;;;;;;4.70;3.20;;;;;;;;;;5031338;28;20026;-77
2024/02/18 01:47:03;;;;;;;4.40;3.35;;;;;;;;;;5033664;28;20030;-77
2024/02/18 01:49:30;;;;;;;4.05;3.15;;;;;;;;;;5017652;28;20021;-77
2024/02/18 01:51:57;;;;;;;3.83;3.20;;;;;;;;;;5019889;28;20045;-77
2024/02/18 01:54:25;;;;;;;3.25;2.70;;;;;;;;;;5017537;28;20076;-77
2024/02/18 01:56:51;;;;;;;3.40;2.92;;;;;;;;;;5019871;28;20026;-77
2024/02/18 01:59:18;;;;;;;3.42;2.63;;;;;;;;;;5023447;28;20061;-77
2024/02/18 02:01:44;;;;;;;3.83;3.13;;;;;;;;;;5029654;28;20034;-77
2024/02/18 02:04:11;;;;;;;5.78;3.80;;;;;;;;;;5019931;28;20030;-77
2024/02/18 02:06:37;;;;;;;4.35;3.08;;;;;;;;;;5035866;28;20030;-77
2024/02/18 02:09:04;;;;;;;4.75;3.55;;;;;;;;;;5020321;28;20105;-77
2024/02/18 02:11:30;;;;;;;5.07;3.72;;;;;;;;;;5016537;28;20016;-77
2024/02/18 02:13:56;;;;;;;4.00;3.47;;;;;;;;;;5019097;28;20026;-78
2024/02/18 02:16:22;;;;;;;6.00;4.32;;;;;;;;;;5016926;28;20030;-78
2024/02/18 02:18:48;;;;;;;5.43;3.83;;;;;;;;;;5024181;28;20026;-78
2024/02/18 02:21:15;;;;;;;4.60;3.47;;;;;;;;;;5021861;28;20103;-78
2024/02/18 02:23:41;;;;;;;3.53;2.80;;;;;;;;;;5031936;28;20454;-78
2024/02/18 02:26:12;;;;;;;4.25;2.83;;;;;;;;;;5031077;28;20092;-78
2024/02/18 02:28:41;;;;;;;4.13;3.13;;;;;;;;;;5019837;28;20014;-78
2024/02/18 02:31:07;;;;;;;3.13;2.83;;;;;;;;;;5019119;28;20022;-77
2024/02/18 02:33:33;;;;;;;3.15;2.78;;;;;;;;;;5032131;28;20057;-77
2024/02/18 02:35:59;;;;;;;3.35;2.88;;;;;;;;;;5021576;28;20369;-77
2024/02/18 02:38:25;;;;;;;3.28;2.53;;;;;;;;;;5018736;28;20096;-78
2024/02/18 02:40:52;;;;;;;3.53;3.10;;;;;;;;;;5017524;28;20084;-79
2024/02/18 02:43:18;;;;;;;3.97;3.20;;;;;;;;;;5017491;28;20430;-77
2024/02/18 02:45:44;;;;;;;4.55;3.13;;;;;;;;;;5017395;28;20034;-77
2024/02/18 02:48:10;;;;;;;3.90;3.15;;;;;;;;;;5018933;28;20039;-78
2024/02/18 02:50:36;;;;;;;3.92;2.85;;;;;;;;;;5019340;28;20056;-77
2024/02/18 02:53:03;;;;;;;4.10;3.40;;;;;;;;;;5017944;28;20030;-77
2024/02/18 02:55:29;;;;;;;3.47;3.13;;;;;;;;;;5019372;28;20156;-77
2024/02/18 02:57:55;;;;;;;4.53;3.45;;;;;;;;;;5020809;28;20026;-77
2024/02/18 03:00:21;;;;;;;3.83;3.20;;;;;;;;;;5019737;28;20087;-77
2024/02/18 03:02:47;;;;;;;4.97;3.70;;;;;;;;;;5021900;28;20495;-78
2024/02/18 03:05:13;;;;;;;4.47;3.70;;;;;;;;;;5020967;28;20041;-78
2024/02/18 03:07:40;;;;;;;4.57;3.38;;;;;;;;;;5017448;28;20018;-77
2024/02/18 03:10:06;;;;;;;3.75;3.33;;;;;;;;;;5016415;28;20018;-77
2024/02/18 03:12:32;;;;;;;4.05;2.72;;;;;;;;;;5017519;28;20024;-77
2024/02/18 03:14:59;;;;;;;3.17;2.85;;;;;;;;;;5024045;28;20108;-77
2024/02/18 03:17:26;;;;;;;3.88;3.13;;;;;;;;;;5017097;28;20048;-77
2024/02/18 03:19:52;;;;;;;3.45;2.95;;;;;;;;;;5031149;28;20080;-77
2024/02/18 03:22:23;;;;;;;2.97;2.70;;;;;;;;;;5016282;28;20048;-78
2024/02/18 03:24:49;;;;;;;3.95;3.17;;;;;;;;;;5019896;28;20022;-78
2024/02/18 03:27:17;;;;;;;3.75;2.88;;;;;;;;;;5020651;28;20065;-77
2024/02/18 03:29:43;;;;;;;3.95;2.85;;;;;;;;;;5021694;28;20026;-78
2024/02/18 03:32:09;;;;;;;4.88;3.08;;;;;;;;;;5016290;28;20025;-78
2024/02/18 03:34:35;;;;;;;3.30;2.60;;;;;;;;;;5023074;28;20041;-78
2024/02/18 03:37:02;;;;;;;3.90;2.80;;;;;;;;;;5022052;28;20060;-78
2024/02/18 03:39:28;;;;;;;4.75;3.30;;;;;;;;;;5021513;28;20025;-78
2024/02/18 03:41:54;;;;;;;4.28;3.38;;;;;;;;;;5050288;28;20032;-77
2024/02/18 03:44:20;;;;;;;3.63;2.78;;;;;;;;;;5034942;28;20037;-77
2024/02/18 03:46:46;;;;;;;4.40;3.03;;;;;;;;;;5018222;28;20037;-77
2024/02/18 03:49:12;;;;;;;4.07;2.90;;;;;;;;;;5016495;28;20485;-79
2024/02/18 03:51:38;;;;;;;4.20;3.10;;;;;;;;;;5020230;28;20022;-78
2024/02/18 03:54:04;;;;;;;4.07;3.03;;;;;;;;;;5030621;28;20030;-78
2024/02/18 03:56:35;;;;;;;4.32;3.00;;;;;;;;;;5034462;28;20045;-78
2024/02/18 03:59:01;;;;;;;3.88;3.20;;;;;;;;;;5019143;28;20104;-77
2024/02/18 04:01:27;;;;;;;3.65;3.13;;;;;;;;;;5019600;28;20109;-78
2024/02/18 04:03:53;;;;;;;3.78;3.30;;;;;;;;;;5046370;28;20022;-77
2024/02/18 04:06:19;;;;;;;4.70;3.25;;;;;;;;;;5048335;28;20034;-77
2024/02/18 04:08:45;;;;;;;3.83;2.95;;;;;;;;;;5029691;28;20025;-77
2024/02/18 04:11:11;;;;;;;3.72;3.00;;;;;;;;;;5035848;28;20064;-77
2024/02/18 04:13:37;;;;;;;3.85;2.97;;;;;;;;;;5026058;28;20024;-77
2024/02/18 04:16:05;;;;;;;4.13;3.30;;;;;;;;;;5025736;28;20029;-77
2024/02/18 04:18:31;;;;;;;4.25;3.30;;;;;;;;;;5025217;28;20045;-77
2024/02/18 04:20:57;;;;;;;4.57;3.33;;;;;;;;;;5025458;28;20032;-77
2024/02/18 04:23:23;;;;;;;5.15;3.33;;;;;;;;;;5026412;28;20101;-77
2024/02/18 04:25:49;;;;;;;6.07;3.85;;;;;;;;;;5043150;28;20036;-77
2024/02/18 04:28:16;;;;;;;5.80;4.20;;;;;;;;;;5033259;28;20025;-77
2024/02/18 04:30:42;;;;;;;4.35;3.53;;;;;;;;;;5036996;28;20049;-76
2024/02/18 04:33:08;;;;;;;5.38;3.72;;;;;;;;;;5049466;28;20038;-76
2024/02/18 04:35:34;;;;;;;6.55;4.20;;;;;;;;;;5035668;28;20026;-77
2024/02/18 04:38:00;;;;;;;4.82;4.13;;;;;;;;;;5048284;28;20038;-77
2024/02/18 04:40:26;;;;;;;6.35;4.38;;;;;;;;;;5051519;28;20030;-77
2024/02/18 04:42:52;;;;;;;6.25;4.25;;;;;;;;;;5036352;28;20018;-78
2024/02/18 04:45:18;;;;;;;5.53;4.00;;;;;;;;;;5036138;28;20052;-77
2024/02/18 04:47:44;;;;;;;5.90;4.60;;;;;;;;;;5056368;28;20034;-77
2024/02/18 04:50:11;;;;;;;6.38;4.82;;;;;;;;;;5039712;28;20018;-77
2024/02/18 04:52:37;;;;;;;7.10;5.10;;;;;;;;;;5036643;28;20030;-77
2024/02/18 04:55:04;;;;;;;6.70;4.65;;;;;;;;;;5036577;28;20040;-77
2024/02/18 04:57:31;;;;;;;8.60;5.60;;;;;;;;;;5051539;28;20025;-77
2024/02/18 04:59:57;;;;;;;8.27;5.38;;;;;;;;;;5036253;28;20086;-74
2024/02/18 05:02:23;;;;;;;10.55;6.50;;;;;;;;;;5033284;28;20113;-77
2024/02/18 05:04:49;;;;;;;8.10;5.82;;;;;;;;;;5025644;28;20034;-76
2024/02/18 05:07:15;;;;;;;7.60;5.47;;;;;;;;;;5023051;28;20026;-77
2024/02/18 05:09:41;;;;;;;5.70;4.70;;;;;;;;;;5016136;28;20029;-77
2024/02/18 05:12:07;;;;;;;5.95;4.38;;;;;;;;;;5016367;28;20052;-78
2024/02/18 05:14:33;;;;;;;6.68;4.80;;;;;;;;;;5036003;28;20029;-77
2024/02/18 05:17:00;;;;;;;8.45;5.43;;;;;;;;;;5016291;28;20116;-77
2024/02/18 05:19:27;;;;;;;8.93;5.70;;;;;;;;;;5015489;28;20148;-77
2024/02/18 05:21:53;;;;;;;8.18;5.32;;;;;;;;;;5017111;28;20446;-77
2024/02/18 05:24:19;;;;;;;6.68;4.53;;;;;;;;;;5017600;28;20103;-77
2024/02/18 05:26:45;;;;;;;7.28;4.80;;;;;;;;;;5035138;28;20026;-77
2024/02/18 05:29:11;;;;;;;6.53;4.82;;;;;;;;;;5017205;28;20026;-77
2024/02/18 05:31:37;;;;;;;6.82;4.60;;;;;;;;;;5035015;28;20053;-76
2024/02/18 05:34:04;;;;;;;6.97;4.35;;;;;;;;;;5018593;28;20695;-77
2024/02/18 05:36:30;;;;;;;5.70;3.92;;;;;;;;;;5018137;28;20253;-77
2024/02/18 05:38:56;;;;;;;4.00;3.28;;;;;;;;;;5029543;28;20030;-76
2024/02/18 05:41:22;;;;;;;4.15;3.33;;;;;;;;;;5016931;28;20060;-77
2024/02/18 05:43:48;;;;;;;4.63;3.38;;;;;;;;;;5018836;28;20029;-77
2024/02/18 05:46:14;;;;;;;4.25;3.42;;;;;;;;;;5017304;28;20061;-78
2024/02/18 05:48:40;;;;;;;4.75;3.30;;;;;;;;;;5019157;28;20018;-76
2024/02/18 05:51:07;;;;;;;4.13;3.33;;;;;;;;;;5019973;28;20041;-77
2024/02/18 05:53:33;;;;;;;4.22;3.35;;;;;;;;;;5019646;28;20036;-77
2024/02/18 05:55:59;;;;;;;4.63;3.60;;;;;;;;;;5019838;28;20362;-77
2024/02/18 05:58:25;;;;;;;4.60;3.40;;;;;;;;;;5022630;28;20022;-77
2024/02/18 06:00:51;;;;;;;5.22;3.40;;;;;;;;;;5020817;28;20052;-77
2024/02/18 06:03:18;;;;;;;5.57;3.80;;;;;;;;;;5020487;28;20053;-77
2024/02/18 06:05:44;;;;;;;4.75;3.42;;;;;;;;;;5033736;28;20559;-77
2024/02/18 06:08:10;;;;;;;5.95;4.20;;;;;;;;;;5009172;28;20034;-78
2024/02/18 06:10:36;;;;;;;6.97;4.00;;;;;;;;;;5017124;28;20067;-78
2024/02/18 06:13:03;;;;;;;5.05;3.83;;;;;;;;;;5016196;28;20777;-77
2024/02/18 06:15:30;;;;;;;5.85;4.03;;;;;;;;;;5022307;28;20025;-78
2024/02/18 06:17:57;;;;;;;6.47;4.07;;;;;;;;;;5017290;28;20076;-77
2024/02/18 06:20:24;;;;;;;6.03;4.07;;;;;;;;;;5017021;28;20026;-78
2024/02/18 06:22:50;;;;;;;6.43;4.38;;;;;;;;;;5018009;28;20401;-77
2024/02/18 06:25:16;;;;;;;4.68;3.58;;;;;;;;;;5018279;28;20032;-79
2024/02/18 06:27:42;;;;;;;4.43;3.33;;;;;;;;;;5018497;28;20444;-77
2024/02/18 06:30:09;;;;;;;4.47;3.40;;;;;;;;;;5015536;28;20460;-77
2024/02/18 06:32:35;;;;;;;6.20;3.50;;;;;;;;;;5015674;28;20401;-76
2024/02/18 06:35:02;;;;;;;6.25;4.18;;;;;;;;;;5016298;28;20030;-77
2024/02/18 06:37:28;;;;;;;5.20;3.80;;;;;;;;;;5017306;28;20022;-77
2024/02/18 06:39:54;;;;;;;3.63;2.83;;;;;;;;;;5020979;28;20030;-77
2024/02/18 06:42:20;;;;;;;3.78;3.03;;;;;;;;;;5019896;28;20034;-78
2024/02/18 06:44:46;;;;;;;3.65;2.60;;;;;;;;;;5015275;28;20547;-77
2024/02/18 06:47:12;;;;;;;3.97;2.92;;;;;;;;;;5013934;28;20038;-77
2024/02/18 06:49:38;;;;;;;3.22;2.53;;;;;;;;;;5015172;28;20495;-77
2024/02/18 06:52:04;;;;;;;2.78;2.38;;;;;;;;;;5015240;28;20504;-77
2024/02/18 06:54:30;;;;;;;4.28;3.13;;;;;;;;;;5015764;28;20539;-77
2024/02/18 06:56:56;;;;;;;4.43;3.03;;;;;;;;;;5014606;28;20064;-78
2024/02/18 06:59:23;;;;;;;3.60;2.83;;;;;;;;;;5014724;28;20025;-77
2024/02/18 07:01:49;;;;;;;4.63;3.28;;;;;;;;;;5015451;28;20033;-77
2024/02/18 07:04:15;;;;;;;4.18;3.08;;;;;;;;;;5015674;28;20105;-77
2024/02/18 07:06:41;;;;;;;3.20;2.67;;;;;;;;;;5015116;28;20473;-77
2024/02/18 07:09:07;;;;;;;3.95;2.72;;;;;;;;;;5015392;28;20026;-77
2024/02/18 07:11:33;;;;;;;2.63;2.42;;;;;;;;;;5014898;28;20417;-77
2024/02/18 07:14:00;;;;;;;2.40;2.00;;;;;;;;;;5015037;28;20397;-77
2024/02/18 07:16:26;;;;;;;2.67;2.08;;;;;;;;;;5015235;28;20079;-78
2024/02/18 07:18:52;;;;;;;3.72;2.80;;;;;;;;;;5015190;28;20026;-77
2024/02/18 07:21:21;;;;;;;4.57;2.85;;;;;;;;;;5016911;28;20041;-77
2024/02/18 07:23:47;;;;;;;3.97;2.95;;;;;;;;;;5014666;28;20052;-77
2024/02/18 07:26:17;;;;;;;3.60;2.90;;;;;;;;;;5028781;28;20022;-77
2024/02/18 07:28:43;;;;;;;2.75;2.42;;;;;;;;;;5022217;28;20022;-77
2024/02/18 07:31:09;;;;;;;3.40;2.78;;;;;;;;;;5014195;28;20037;-78
2024/02/18 07:33:35;;;;;;;3.25;2.58;;;;;;;;;;5014626;28;20045;-77
2024/02/18 07:36:02;;;;;;;3.20;2.50;;;;;;;;;;5014603;28;20018;-77
2024/02/18 07:38:28;;;;;;;3.65;2.67;;;;;;;;;;5022057;28;20029;-77
2024/02/18 07:40:54;;;;;;;2.67;2.45;;;;;;;;;;5014985;28;20048;-76
2024/02/18 07:43:21;;;;;;;3.88;2.92;;;;;;;;;;5023903;28;20033;-78
2024/02/18 07:45:47;;;;;;;2.67;2.08;;;;;;;;;;5020095;28;20045;-79
2024/02/18 07:48:13;;;;;;;3.78;3.03;;;;;;;;;;5023529;28;20108;-78
2024/02/18 07:50:39;;;;;;;2.90;2.40;;;;;;;;;;5023524;28;20014;-78
2024/02/18 07:53:07;;;;;;;3.10;2.35;;;;;;;;;;5016287;28;20052;-77
2024/02/18 07:55:34;;;;;;;3.13;2.40;;;;;;;;;;5015784;28;20046;-77
2024/02/18 07:58:00;;;;;;;3.08;2.20;;;;;;;;;;5026671;28;20042;-77
2024/02/18 08:00:27;;;;;;;3.42;2.60;;;;;;;;;;5031771;28;20050;-77
2024/02/18 08:02:53;;;;;;;4.25;2.88;;;;;;;;;;5014348;28;20089;-77
2024/02/18 08:05:19;;;;;;;3.22;2.58;;;;;;;;;;5041182;28;20030;-77
2024/02/18 08:07:45;;;;;;;4.30;2.67;;;;;;;;;;5030748;28;20030;-77
2024/02/18 08:10:11;;;;;;;3.10;2.40;;;;;;;;;;5020096;28;20105;-78
2024/02/18 08:12:37;;;;;;;2.85;2.33;;;;;;;;;;5015897;28;20032;-77
2024/02/18 08:15:04;;;;;;;2.95;2.65;;;;;;;;;;5013562;28;20374;-76
2024/02/18 08:17:30;;;;;;;3.35;2.90;;;;;;;;;;5014293;28;20030;-77
2024/02/18 08:19:56;;;;;;;3.25;2.83;;;;;;;;;;5017319;28;20369;-77
2024/02/18 08:22:24;;;;;;;3.25;2.60;;;;;;;;;;5027971;28;20028;-78
2024/02/18 08:24:50;;;;;;;2.63;2.00;;;;;;;;;;5016178;28;20477;-78
2024/02/18 08:27:16;;;;;;;3.03;2.38;;;;;;;;;;5017737;28;20030;-77
2024/02/18 08:29:44;;;;;;;5.72;4.25;;;;;;;;;;5015659;28;20037;-78
2024/02/18 08:32:11;;;;;;;7.10;5.15;;;;;;;;;;5015257;28;20082;-77
2024/02/18 08:34:37;;;;;;;7.78;5.53;;;;;;;;;;5022880;28;20025;-77
2024/02/18 08:37:04;;;;;;;10.18;6.18;;;;;;;;;;5013826;28;20026;-77
2024/02/18 08:39:30;;;;;;;9.50;6.10;;;;;;;;;;5014389;28;20520;-79
2024/02/18 08:41:56;;;;;;;8.43;5.50;;;;;;;;;;5015009;28;20033;-77
2024/02/18 08:44:22;;;;;;;7.00;5.13;;;;;;;;;;5014928;28;20030;-77
2024/02/18 08:46:50;;;;;;;8.05;5.15;;;;;;;;;;5029201;28;20366;-78
2024/02/18 08:49:16;;;;;;;6.00;4.78;;;;;;;;;;5015919;28;20025;-78
2024/02/18 08:51:42;;;;;;;5.70;4.30;;;;;;;;;;5016041;28;20026;-78
2024/02/18 08:54:08;;;;;;;5.03;3.72;;;;;;;;;;5016673;28;20029;-78
2024/02/18 08:56:34;;;;;;;3.60;3.15;;;;;;;;;;5021888;28;20080;-78
2024/02/18 08:59:00;;;;;;;4.95;3.95;;;;;;;;;;5017504;28;20057;-77
2024/02/18 09:01:26;;;;;;;5.50;3.88;;;;;;;;;;5027055;28;20029;-78
2024/02/18 09:03:52;;;;;;;5.03;3.88;;;;;;;;;;5019126;28;20045;-78
2024/02/18 09:06:19;;;;;;;4.25;3.75;;;;;;;;;;5024647;28;20030;-78
2024/02/18 09:08:45;;;;;;;5.78;4.07;;;;;;;;;;5026007;28;20085;-78
2024/02/18 09:11:11;;;;;;;5.10;3.88;;;;;;;;;;5022510;28;20029;-78
2024/02/18 09:13:37;;;;;;;6.15;5.03;;;;;;;;;;5018274;28;20338;-78
2024/02/18 09:16:03;;;;;;;5.65;4.40;;;;;;;;;;5017811;28;20026;-77
2024/02/18 09:18:30;;;;;;;4.47;3.83;;;;;;;;;;5034545;28;20109;-77
2024/02/18 09:20:56;;;;;;;4.55;3.72;;;;;;;;;;5024392;28;20030;-77
2024/02/18 09:23:22;;;;;;;4.60;3.75;;;;;;;;;;5021524;28;20026;-78
2024/02/18 09:25:48;;;;;;;5.63;4.57;;;;;;;;;;5018743;28;20026;-78
2024/02/18 09:28:15;;;;;;;10.25;7.10;;;;;;;;;;5019081;28;20072;-77
2024/02/18 09:30:41;;;;;;;10.40;7.75;;;;;;;;;;5019833;28;20291;-77
2024/02/18 09:33:07;;;;;;;8.00;6.25;;;;;;;;;;5021180;28;20026;-77
2024/02/18 09:35:34;;;;;;;9.82;6.03;;;;;;;;;;5024577;28;20481;-78
2024/02/18 09:38:00;;;;;;;6.60;4.45;;;;;;;;;;5033837;28;20021;-77
2024/02/18 09:40:26;;;;;;;7.72;5.60;;;;;;;;;;5016437;28;20108;-77
2024/02/18 09:42:53;;;;;;;5.78;4.60;;;;;;;;;;5017914;28;20101;-77
2024/02/18 09:45:25;;;;;;;5.63;4.40;;;;;;;;;;5016879;28;20040;-77
2024/02/18 09:47:51;;;;;;;;;;;;;;;;;;5017274;28;20036;-77
2024/02/18 09:50:17;;;;;;;6.78;4.88;;;;;;;;;;5017818;28;19906;-77
2024/02/18 09:52:44;;;;;;;6.97;5.10;;;;;;;;;;5020975;28;20033;-78
2024/02/18 09:55:11;;;;;;;5.32;3.95;;;;;;;;;;5019083;28;20022;-78
2024/02/18 09:57:41;;;;;;;4.45;3.72;;;;;;;;;;5019696;28;20018;-78
2024/02/18 10:00:10;;;;;;;5.18;4.10;;;;;;;;;;5028989;28;20473;-77
2024/02/18 10:02:37;;;;;;;4.28;3.80;;;;;;;;;;5017833;28;20309;-79
2024/02/18 10:05:04;;;;;;;4.43;3.08;;;;;;;;;;5016907;28;20026;-77
2024/02/18 10:07:31;;;;;;;3.60;3.05;;;;;;;;;;5016091;28;20021;-78
2024/02/18 10:09:58;;;;;;;3.25;2.95;;;;;;;;;;5017991;28;20022;-78
2024/02/18 10:12:25;;;;;;;3.63;3.30;;;;;;;;;;5018455;28;20028;-78
2024/02/18 10:15:03;;;;;;;4.38;2.95;;;;;;;;;;5017728;28;20025;-79
2024/02/18 10:17:29;;;;;;;3.35;3.05;;;;;;;;;;5015774;28;20100;-78
2024/02/18 10:19:56;;;;;;;3.42;2.88;;;;;;;;;;5018752;28;20018;-78
2024/02/18 10:22:23;;;;;;;3.15;2.50;;;;;;;;;;5038586;28;20492;-77
2024/02/18 10:24:49;;;;;;;3.40;2.70;;;;;;;;;;5018755;28;20022;-77
2024/02/18 10:27:16;;;;;;;4.35;3.60;;;;;;;;;;5016791;28;20026;-77
2024/02/18 10:29:42;;;;;;;4.15;3.55;;;;;;;;;;5032848;28;20072;-77
2024/02/18 10:32:08;;;;;;;5.57;4.70;;;;;;;;;;5018864;28;20085;-77
2024/02/18 10:34:34;;;;;;;7.65;4.20;;;;;;;;;;5022709;28;20034;-78
2024/02/18 10:37:05;;;;;;;4.65;3.35;;;;;;;;;;5020980;28;20026;-78
2024/02/18 10:39:33;;;;;;;3.10;2.67;;;;;;;;;;5034140;28;20113;-78
2024/02/18 10:42:19;;;;;;;2.92;2.40;;;;;;;;;;5019472;28;20481;-77
2024/02/18 10:44:45;;;;;;;2.25;2.03;;;;;;;;;;5040045;28;20025;-77
2024/02/18 10:47:14;;;;;;;2.22;1.98;;;;;;;;;;5028482;28;20192;-77
2024/02/18 10:49:42;;;;;;;1.70;1.60;;;;;;;;;;5029487;28;20024;-77
2024/02/18 10:52:27;;;;;;;2.00;1.83;;;;;;;;;;5033437;28;20476;-77
2024/02/18 10:55:03;;;;;;;3.47;1.67;;;;;;;;;;5016332;28;20092;-77
2024/02/18 10:57:30;;;;;;;1.98;1.83;;;;;;;;;;5019445;28;20029;-79
2024/02/18 11:00:07;;;;;;;1.55;1.45;;;;;;;;;;5018653;28;20022;-77
2024/02/18 11:02:52;;;;;;;2.17;1.98;;;;;;;;;;5017249;28;20033;-78
2024/02/18 11:05:19;;;;;;;1.80;1.70;;;;;;;;;;5017641;28;20384;-78
2024/02/18 11:07:45;;;;;;;1.80;1.70;;;;;;;;;;5016336;28;20022;-78
2024/02/18 11:10:11;;;;;;;2.42;2.05;;;;;;;;;;5015998;28;20359;-77
2024/02/18 11:12:38;;;;;;;2.38;2.17;;;;;;;;;;5020998;28;20481;-78
2024/02/18 11:15:07;;;;;;;2.88;2.58;;;;;;;;;;5023959;28;20030;-78
2024/02/18 11:17:34;;;;;;;2.92;2.60;;;;;;;;;;5016930;28;20410;-77
2024/02/18 11:20:00;;;;;;;4.10;3.40;;;;;;;;;;5015611;28;20046;-77
2024/02/18 11:22:27;;;;;;;3.45;3.05;;;;;;;;;;5015318;28;20022;-77
2024/02/18 11:24:54;;;;;;;2.63;2.40;;;;;;;;;;5015960;28;20022;-77
2024/02/18 11:27:20;;;;;;;3.58;2.50;;;;;;;;;;5014822;28;20026;-77
2024/02/18 11:29:47;;;;;;;2.28;2.03;;;;;;;;;;5016533;28;20021;-77
2024/02/18 11:32:14;;;;;;;1.77;1.67;;;;;;;;;;5017559;28;20022;-78
2024/02/18 11:34:42;;;;;;;3.25;2.42;;;;;;;;;;5019880;28;20484;-78
2024/02/18 11:37:47;;;;;;;4.50;3.75;;;;;;;;;;5034605;28;20049;-78
2024/02/18 11:40:18;;;;;;;6.15;4.38;;;;;;;;;;4974215;28;20371;-77
2024/02/18 11:42:45;;;;;;;4.80;3.70;;;;;;;;;;4976343;28;20026;-78
2024/02/18 11:45:11;;;;;;;3.30;3.00;;;;;;;;;;5004114;28;20038;-77
2024/02/18 11:47:58;;;;;;;5.13;3.80;;;;;;;;;;5032182;28;20084;-77
2024/02/18 11:50:24;;;;;;;3.78;3.05;;;;;;;;;;5022295;28;20025;-78
2024/02/18 11:52:51;;;;;;;3.70;2.67;;;;;;;;;;5021133;28;20022;-78
2024/02/18 11:55:17;;;;;;;2.83;2.00;;;;;;;;;;5019608;28;20028;-78
2024/02/18 11:57:43;;;;;;;2.10;1.90;;;;;;;;;;5032934;28;20025;-77
2024/02/18 12:00:10;;;;;;;1.75;1.63;;;;;;;;;;5021911;28;20116;-78
2024/02/18 12:02:45;;;;;;;1.15;1.10;;;;;;;;;;5034228;28;20036;-77
2024/02/18 12:05:11;;;;;;;1.30;1.10;;;;;;;;;;5019081;28;20045;-78
2024/02/18 12:07:40;;;;;;;1.58;1.35;;;;;;;;;;5021874;28;20033;-79
2024/02/18 12:10:07;;;;;;;0.90;0.90;;;;;;;;;;5036741;28;20029;-78
2024/02/18 12:12:33;;;;;;;0.80;0.80;;;;;;;;;;5018370;28;20018;-78
2024/02/18 12:14:59;;;;;;;1.00;1.00;;;;;;;;;;5038276;28;20544;-78
2024/02/18 12:17:25;;;;;;;0.82;0.82;;;;;;;;;;5015869;28;20034;-78
2024/02/18 12:19:56;;;;;;;0.75;0.75;;;;;;;;;;5016582;28;20033;-77
2024/02/18 12:22:23;;;;;;;1.00;1.00;;;;;;;;;;5019328;28;20022;-77
2024/02/18 12:24:50;;;;;;;1.58;1.20;;;;;;;;;;5024083;28;20029;-78
2024/02/18 12:27:19;;;;;;;0.90;0.90;;;;;;;;;;5037931;28;20130;-77
2024/02/18 12:29:46;;;;;;;0.77;0.77;;;;;;;;;;5018895;28;20021;-78
2024/02/18 12:32:13;;;;;;;1.25;1.13;;;;;;;;;;5032898;28;20036;-77
2024/02/18 12:34:42;;;;;;;0.77;0.77;;;;;;;;;;5019358;28;20022;-78
2024/02/18 12:37:08;;;;;;;0.70;0.70;;;;;;;;;;5022594;28;20568;-77
2024/02/18 12:39:35;;;;;;;0.68;0.68;;;;;;;;;;5014395;28;20519;-77
2024/02/18 12:42:01;;;;;;;1.88;1.77;;;;;;;;;;5016479;28;20168;-77
2024/02/18 12:44:27;;;;;;;1.45;1.30;;;;;;;;;;5023606;28;20019;-77
2024/02/18 12:46:57;;;;;;;1.00;1.00;;;;;;;;;;5022707;28;20112;-77
2024/02/18 12:49:24;;;;;;;1.30;1.20;;;;;;;;;;5020216;28;20022;-77
2024/02/18 12:51:50;;;;;;;1.60;1.45;;;;;;;;;;5023811;28;20151;-78
2024/02/18 12:54:20;;;;;;;2.75;1.88;;;;;;;;;;5024348;28;20053;-77
2024/02/18 12:56:47;;;;;;;1.80;1.52;;;;;;;;;;5039214;28;20033;-78
2024/02/18 12:59:16;;;;;;;1.85;1.75;;;;;;;;;;5035502;28;20046;-77
2024/02/18 13:01:42;;;;;;;1.50;1.40;;;;;;;;;;5037130;28;20466;-77
2024/02/18 13:04:09;;;;;;;1.30;1.20;;;;;;;;;;5019750;28;20090;-77
2024/02/18 13:06:35;;;;;;;1.45;1.35;;;;;;;;;;5024681;28;20029;-77
2024/02/18 13:09:01;;;;;;;1.40;1.30;;;;;;;;;;5023200;28;20093;-77
2024/02/18 13:11:28;;;;;;;1.30;1.25;;;;;;;;;;5025934;28;20036;-77
2024/02/18 13:13:56;;;;;;;1.00;1.00;;;;;;;;;;5043524;28;20482;-77
2024/02/18 13:16:23;;;;;;;1.30;1.20;;;;;;;;;;5043226;28;20032;-76
2024/02/18 13:18:49;;;;;;;1.70;0.90;;;;;;;;;;5035040;28;20034;-77
2024/02/18 13:21:21;;;;;;;0.88;0.88;;;;;;;;;;5047301;28;20041;-78
2024/02/18 13:23:47;;;;;;;1.20;1.10;;;;;;;;;;5026851;28;20024;-79
2024/02/18 13:26:13;;;;;;;1.45;1.35;;;;;;;;;;5034534;28;20056;-78
2024/02/18 13:28:39;;;;;;;1.30;1.20;;;;;;;;;;5030832;28;20018;-78
2024/02/18 13:31:06;;;;;;;1.58;1.15;;;;;;;;;;5034050;28;20397;-78
2024/02/18 13:33:33;;;;;;;1.60;1.50;;;;;;;;;;5019122;28;20312;-78
2024/02/18 13:35:59;;;;;;;2.22;1.20;;;;;;;;;;5022481;28;20026;-77
2024/02/18 13:38:25;;;;;;;1.00;1.00;;;;;;;;;;5014900;28;20022;-77
2024/02/18 13:40:51;;;;;;;1.15;1.02;;;;;;;;;;5014095;28;20493;-78
2024/02/18 13:43:18;;;;;;;0.60;0.60;;;;;;;;;;5016532;28;20033;-77
2024/02/18 13:45:45;;;;;;;0.55;0.55;;;;;;;;;;5016684;28;20096;-78
2024/02/18 13:48:11;;;;;;;0.65;0.50;;;;;;;;;;5016405;28;20441;-77
2024/02/18 13:50:37;;;;;;;2.05;0.60;;;;;;;;;;5019480;28;20461;-77
2024/02/18 13:53:03;;;;;;;0.52;0.52;;;;;;;;;;5034629;28;20022;-77
2024/02/18 13:55:30;;;;;;;0.40;0.40;;;;;;;;;;5024558;28;20033;-78
2024/02/18 13:57:56;;;;;;;1.23;0.90;;;;;;;;;;5037987;28;20037;-78
2024/02/18 14:00:22;;;;;;;0.90;0.90;;;;;;;;;;5024820;28;20034;-77
2024/02/18 14:02:48;;;;;;;0.77;0.77;;;;;;;;;;5029413;28;20136;-78
2024/02/18 14:05:19;;;;;;;1.48;1.25;;;;;;;;;;5032689;28;20038;-78
2024/02/18 14:07:45;;;;;;;1.42;1.20;;;;;;;;;;5032491;28;20064;-78
2024/02/18 14:10:12;;;;;;;0.50;0.50;;;;;;;;;;5041621;28;20031;-78
2024/02/18 14:12:39;;;;;;;0.80;0.80;;;;;;;;;;5017837;28;20025;-78
2024/02/18 14:15:06;;;;;;;0.43;0.43;;;;;;;;;;5019220;28;20014;-78
2024/02/18 14:17:32;;;;;;;0.77;0.77;;;;;;;;;;5018462;28;20096;-79
2024/02/18 14:19:58;;;;;;;0.80;0.80;;;;;;;;;;5019315;28;20030;-76
2024/02/18 14:22:24;;;;;;;3.17;1.27;;;;;;;;;;5019121;28;20082;-77
2024/02/18 14:24:50;;;;;;;1.27;1.17;;;;;;;;;;5029638;28;20109;-78
2024/02/18 14:27:16;;;;;;;0.70;0.70;;;;;;;;;;5018837;28;20025;-77
2024/02/18 14:29:42;;;;;;;1.25;0.90;;;;;;;;;;5034036;28;20060;-78
2024/02/18 14:32:08;;;;;;;2.15;1.58;;;;;;;;;;5034035;28;20045;-77
2024/02/18 14:34:34;;;;;;;1.20;1.10;;;;;;;;;;5018249;28;20033;-78
2024/02/18 14:37:00;;;;;;;0.98;0.90;;;;;;;;;;5020271;28;20030;-78
2024/02/18 14:39:27;;;;;;;0.90;0.88;;;;;;;;;;5044051;28;20025;-77
2024/02/18 14:41:53;;;;;;;0.60;0.60;;;;;;;;;;5028417;28;20052;-78